Terminal Aerodrome Forecast
Issued by NWS

Home | Current Version | Previous Version | Text Only | Print | Product List | Glossary On
Versions: 1 2 3 4 5 6 7 8 9 10 11 12 13 14 15 16 17 18 19 20 21
000
FTUS46 KSEW 280537
TAFBLI
TAF
KBLI 280537Z 2806/2906 15012KT P6SM -RA FEW009 SCT020 OVC035
      TEMPO 2806/2809 FEW009 OVC020
     FM280900 15012KT 6SM -RA BR SCT007 OVC020
      TEMPO 2811/2815 4SM -RA BR
     FM281800 15018G28KT P6SM -RA BKN028 OVC050=

USA.gov is the U.S. government's official web portal to all federal, state and local government web resources and services.